createdAt,value
2018-01-01T00:06:33.832Z,99100.52
2018-01-01T00:09:01.929Z,99104.16
2018-01-01T00:11:36.785Z,99113.35
2018-01-01T00:14:04.753Z,99120.45
2018-01-01T00:16:33.506Z,99120.24
2018-01-01T00:19:01.086Z,99132.77
2018-01-01T00:21:33.380Z,99127.11
2018-01-01T00:24:02.283Z,99130.79
2018-01-01T00:26:32.213Z,99117.58
2018-01-01T00:29:07.917Z,99112.51
2018-01-01T00:31:35.798Z,99125.09
2018-01-01T00:34:06.733Z,99129.52
2018-01-01T00:36:33.939Z,99129.87
2018-01-01T00:39:01.376Z,99128.23
2018-01-01T00:41:28.751Z,99146.48
2018-01-01T00:43:57.840Z,99128.55
2018-01-01T00:46:25.164Z,99121.80
2018-01-01T00:48:55.115Z,99117.12
2018-01-01T00:51:28.491Z,99097.91
2018-01-01T00:54:01.660Z,99099.07
2018-01-01T00:56:29.517Z,99093.99
2018-01-01T00:58:56.937Z,99093.48
2018-01-01T01:01:26.781Z,99092.25
2018-01-01T01:03:59.889Z,99088.22
2018-01-01T01:06:29.971Z,99103.52
2018-01-01T01:08:59.582Z,99108.98
2018-01-01T01:11:27.028Z,99118.55
2018-01-01T01:13:58.789Z,99114.16
2018-01-01T01:16:26.974Z,99115.91
2018-01-01T01:18:55.285Z,99109.44
2018-01-01T01:21:23.793Z,99113.77
2018-01-01T01:23:52.065Z,99114.93
2018-01-01T01:26:24.908Z,99121.35
2018-01-01T01:29:03.652Z,99125.83
2018-01-01T01:31:30.879Z,99124.84
2018-01-01T01:33:59.987Z,99125.89
2018-01-01T01:36:28.250Z,99128.54
2018-01-01T01:38:56.261Z,99141.05
2018-01-01T01:41:28.576Z,99139.53
2018-01-01T01:43:58.713Z,99157.89
2018-01-01T01:46:28.020Z,99146.95
2018-01-01T01:49:01.969Z,99145.02
2018-01-01T01:51:30.966Z,99128.83
2018-01-01T01:54:07.678Z,99145.73
2018-01-01T01:56:38.324Z,99150.27
2018-01-01T02:20:28.883Z,99157.56
2018-01-01T02:23:03.036Z,99150.67
2018-01-01T02:25:40.266Z,99146.64
2018-01-01T02:28:08.901Z,99144.70
2018-01-01T02:30:37.246Z,99139.95
2018-01-01T02:33:07.969Z,99149.95
2018-01-01T02:35:36.341Z,99147.05
2018-01-01T02:56:45.788Z,99157.48
2018-01-01T02:59:19.915Z,99160.56
2018-01-01T03:01:50.565Z,99158.78
2018-01-01T03:04:18.029Z,99160.67
2018-01-01T03:24:51.193Z,99162.48
2018-01-01T03:27:18.184Z,99162.64
2018-01-01T03:29:45.087Z,99158.58
2018-01-01T03:32:12.762Z,99157.66
2018-01-01T03:34:39.965Z,99166.11
2018-01-01T03:37:07.588Z,99162.17
2018-01-01T03:39:36.094Z,99163.48
2018-01-01T03:42:04.513Z,99173.38
2018-01-01T03:44:32.375Z,99170.73
2018-01-01T03:46:59.395Z,99185.17
2018-01-01T03:49:28.408Z,99158.95
2018-01-01T03:51:55.592Z,99172.64
2018-01-01T03:54:23.406Z,99188.75
2018-01-01T03:56:51.735Z,99183.38
2018-01-01T03:59:19.584Z,99186.47
2018-01-01T04:19:47.864Z,99216.58
2018-01-01T04:22:14.808Z,99217.69
2018-01-01T04:24:43.148Z,99228.64
2018-01-01T04:27:10.044Z,99219.90
2018-01-01T04:29:37.117Z,99216.26
2018-01-01T04:32:05.053Z,99232.55
2018-01-01T04:34:32.532Z,99234.47
2018-01-01T04:36:59.656Z,99225.27
2018-01-01T04:39:26.691Z,99229.17
2018-01-01T04:41:53.780Z,99235.27
2018-01-01T04:44:21.492Z,99245.53
2018-01-01T04:46:48.953Z,99260.30
2018-01-01T04:49:17.609Z,99260.94
2018-01-01T04:51:46.419Z,99260.09
2018-01-01T04:54:13.630Z,99259.84
2018-01-01T04:56:40.530Z,99259.23
2018-01-01T04:59:07.707Z,99257.03
2018-01-01T05:01:36.230Z,99265.92
2018-01-01T05:04:03.078Z,99265.14
2018-01-01T05:06:30.698Z,99274.60
2018-01-01T05:08:57.639Z,99290.32
2018-01-01T05:11:25.203Z,99286.87
2018-01-01T05:13:52.067Z,99296.57
2018-01-01T05:16:19.741Z,99291.77
2018-01-01T05:18:47.325Z,99305.14
2018-01-01T05:21:14.225Z,99314.78
2018-01-01T05:23:41.216Z,99299.95
2018-01-01T05:26:08.122Z,99310.30
2018-01-01T05:28:35.254Z,99314.25
2018-01-01T05:31:02.266Z,99320.32
2018-01-01T05:33:34.332Z,99330.37
2018-01-01T05:36:01.430Z,99336.72
2018-01-01T05:38:28.539Z,99341.73
2018-01-01T05:40:57.686Z,99335.78
2018-01-01T05:43:24.930Z,99340.48
2018-01-01T05:45:51.932Z,99352.31
2018-01-01T05:48:20.152Z,99340.73
2018-01-01T05:50:48.017Z,99351.53
2018-01-01T05:53:16.358Z,99348.36
2018-01-01T05:55:43.460Z,99345.45
2018-01-01T05:58:10.351Z,99337.28
2018-01-01T06:00:41.672Z,99361.76
2018-01-01T06:05:46.497Z,99365.85
2018-01-01T06:08:13.738Z,99373.36
2018-01-01T06:10:41.038Z,99376.48
2018-01-01T06:13:08.246Z,99377.35
2018-01-01T06:15:36.594Z,99378.52
2018-01-01T06:18:03.539Z,99395.78
2018-01-01T06:20:30.468Z,99394.77
2018-01-01T06:22:58.913Z,99376.20
2018-01-01T06:25:26.285Z,99388.71
2018-01-01T06:27:53.183Z,99397.64
2018-01-01T06:30:20.348Z,99407.52
2018-01-01T06:32:48.054Z,99419.19
2018-01-01T06:53:18.232Z,99438.98
2018-01-01T06:55:46.643Z,99445.76
2018-01-01T06:58:14.780Z,99434.71
2018-01-01T07:00:42.042Z,99433.83
2018-01-01T07:03:08.953Z,99445.32
2018-01-01T07:05:35.943Z,99435.92
2018-01-01T07:08:02.870Z,99444.86
2018-01-01T07:10:30.453Z,99438.19
2018-01-01T07:12:58.940Z,99446.94
2018-01-01T07:15:27.664Z,99443.36
2018-01-01T07:17:54.646Z,99450.13
2018-01-01T07:20:23.161Z,99450.55
2018-01-01T07:22:50.391Z,99458.38
2018-01-01T07:25:17.843Z,99461.07
2018-01-01T07:27:44.687Z,99466.76
2018-01-01T07:30:15.272Z,99473.09
2018-01-01T07:32:42.270Z,99476.06
2018-01-01T07:35:18.359Z,99472.91
2018-01-01T07:37:48.625Z,99474.72
2018-01-01T07:40:21.401Z,99489.28
2018-01-01T07:42:48.528Z,99486.45
2018-01-01T07:45:15.582Z,99489.28
2018-01-01T07:47:42.568Z,99486.75
2018-01-01T07:50:10.667Z,99492.13
2018-01-01T07:52:39.047Z,99486.45
2018-01-01T07:55:06.354Z,99491.45
2018-01-01T07:57:34.158Z,99492.72
2018-01-01T08:00:01.204Z,99491.02
2018-01-01T08:02:28.363Z,99489.60
2018-01-01T08:07:27.480Z,99494.47
2018-01-01T08:09:55.571Z,99487.30
2018-01-01T08:12:22.499Z,99483.16
2018-01-01T08:14:51.065Z,99484.38
2018-01-01T08:20:22.834Z,99487.96
2018-01-01T08:22:50.739Z,99483.06
2018-01-01T08:25:17.850Z,99486.84
2018-01-01T08:27:45.553Z,99494.96
2018-01-01T08:30:12.665Z,99492.04
2018-01-01T08:32:39.689Z,99487.41
2018-01-01T08:35:07.645Z,99495.39
2018-01-01T08:37:34.604Z,99495.92
2018-01-01T08:40:02.874Z,99488.09
2018-01-01T08:42:32.512Z,99487.70
2018-01-01T08:45:05.638Z,99491.12
2018-01-01T08:47:33.243Z,99495.19
2018-01-01T08:50:00.252Z,99501.50
2018-01-01T08:52:27.232Z,99494.30
2018-01-01T08:54:55.104Z,99494.83
2018-01-01T08:57:22.009Z,99499.63
2018-01-01T08:59:49.602Z,99501.34
2018-01-01T09:02:16.980Z,99509.23
2018-01-01T09:04:44.075Z,99507.45
2018-01-01T09:07:11.008Z,99501.41
2018-01-01T09:09:37.954Z,99495.30
2018-01-01T09:12:04.866Z,99507.02
2018-01-01T09:14:31.826Z,99509.98
2018-01-01T09:16:58.705Z,99509.88
2018-01-01T09:19:25.621Z,99506.00
2018-01-01T09:21:53.326Z,99518.27
2018-01-01T09:24:20.193Z,99519.91
2018-01-01T09:26:47.178Z,99514.72
2018-01-01T09:29:14.163Z,99515.70
2018-01-01T09:31:41.015Z,99507.55
2018-01-01T09:34:07.840Z,99510.15
2018-01-01T09:36:34.658Z,99502.59
2018-01-01T09:39:02.263Z,99505.34
2018-01-01T09:41:29.163Z,99506.99
2018-01-01T09:43:56.054Z,99504.52
2018-01-01T09:46:22.922Z,99500.88
2018-01-01T09:48:49.741Z,99495.05
2018-01-01T09:51:16.603Z,99493.47
2018-01-01T09:53:44.179Z,99495.95
2018-01-01T09:56:11.727Z,99485.20
2018-01-01T09:58:38.578Z,99488.02
2018-01-01T10:01:06.576Z,99493.38
2018-01-01T10:03:33.553Z,99488.11
2018-01-01T10:06:23.599Z,99478.94
2018-01-01T10:09:15.706Z,99474.41
2018-01-01T10:19:02.400Z,99470.14
2018-01-01T10:22:00.670Z,99467.70
2018-01-01T10:24:42.753Z,99467.73
2018-01-01T10:27:38.564Z,99477.73
2018-01-01T10:30:53.482Z,99466.19
2018-01-01T10:33:41.023Z,99473.92
2018-01-01T11:30:08.471Z,99383.20
2018-01-01T11:33:03.327Z,99374.73
2018-01-01T11:39:26.135Z,99361.44
2018-01-01T11:45:24.831Z,99351.48
2018-01-01T12:24:54.535Z,99261.06
2018-01-01T12:33:12.449Z,99236.90
2018-01-01T12:51:09.258Z,99207.44
